Glasgow Village, Missouri
Current Conditions -  °F | °C
As of 2:51 AM on Thursday 27 Nov 2014 (Local Time) from KSTL Reporting Station
Light Snow Light Snow  
Wind Chill: 25°   Ceiling: 1200
Heat Index: 32°   Visibility: 5mi
Dew Point: 27°   Wind: 8mph
Humidity: 82%   Direction: 340°NNW
Pressure: 30.34"   Gusts: NA
Location:  38.7508°N, 90.2149°W
Report Text: KSTL 270851Z 34007KT 5SM -SN BR OVC012 00/M03 A3034 RMK AO2 SLP282 P0000 60000 T00001028 51025
Loading
Personal Weather Stations






























Interactive Weather Map New forecast layout! Learn more

10-Day Weather Forecast

Advertisements
Track Severe Weather on mobile